Time;durP1;ratioP1;P1;durP2;ratioP2;P2;SDS_P1;SDS_P2;PMS_P1;PMS_P2;Temp;Humidity;BMP_temperature;BMP_pressure;BME280_temperature;BME280_humidity;BME280_pressure;Samples;Min_cycle;Max_cycle;Signal;HPM_P1;HPM_P2
2023/02/22 00:00:51;;;;;;;21.13;10.15;;;7.20;99.90;;;;;;4913252;29;20039;-89
2023/02/22 00:03:26;;;;;;;20.00;9.45;;;7.10;99.90;;;;;;4897814;29;20023;-89
2023/02/22 00:05:57;;;;;;;21.75;10.50;;;7.10;99.90;;;;;;4909217;29;20039;-89
2023/02/22 00:08:29;;;;;;;20.70;10.63;;;7.10;99.90;;;;;;4912821;29;20048;-89
2023/02/22 00:11:07;;;;;;;22.73;10.73;;;7.10;99.90;;;;;;4916944;29;20171;-89
2023/02/22 00:13:34;;;;;;;23.23;11.25;;;7.10;99.90;;;;;;4927589;29;20047;-89
2023/02/22 00:16:01;;;;;;;26.67;11.50;;;7.10;99.90;;;;;;4926161;29;20261;-89
2023/02/22 00:18:28;;;;;;;26.40;11.63;;;7.00;99.90;;;;;;4913402;29;20034;-89
2023/02/22 00:20:57;;;;;;;25.00;12.00;;;7.00;99.90;;;;;;4894625;29;20564;-89
2023/02/22 00:23:27;;;;;;;25.27;11.30;;;7.00;99.90;;;;;;4896937;29;20028;-90
2023/02/22 00:25:53;;;;;;;24.90;11.20;;;7.00;99.90;;;;;;4910533;29;20023;-89
2023/02/22 00:28:20;;;;;;;22.88;11.70;;;7.00;99.90;;;;;;4914346;29;20050;-89
2023/02/22 00:30:48;;;;;;;24.35;10.73;;;7.00;99.90;;;;;;4915425;29;20031;-89
2023/02/22 00:33:15;;;;;;;27.27;10.85;;;7.00;99.90;;;;;;4895499;29;20092;-88
2023/02/22 00:35:44;;;;;;;28.67;12.90;;;7.00;99.90;;;;;;4894967;29;20127;-88
2023/02/22 00:38:12;;;;;;;24.58;11.73;;;6.90;99.90;;;;;;4910599;29;20126;-87
2023/02/22 00:40:39;;;;;;;25.40;12.05;;;7.00;99.90;;;;;;4912018;29;20035;-87
2023/02/22 00:43:05;;;;;;;26.27;11.07;;;7.00;99.90;;;;;;4921941;29;20485;-87
2023/02/22 00:45:34;;;;;;;25.55;11.05;;;7.00;99.90;;;;;;4895284;29;20024;-88
2023/02/22 00:48:01;;;;;;;23.98;10.55;;;6.90;99.90;;;;;;4924506;29;20088;-88
2023/02/22 00:50:29;;;;;;;27.35;11.70;;;6.90;99.90;;;;;;4909693;29;20028;-87
2023/02/22 00:52:57;;;;;;;22.95;9.68;;;6.90;99.90;;;;;;4910638;29;20039;-87
2023/02/22 00:55:28;;;;;;;24.20;10.55;;;7.00;99.90;;;;;;4912727;29;20034;-87
2023/02/22 00:57:57;;;;;;;21.40;9.10;;;6.90;99.90;;;;;;4892952;29;20482;-87
2023/02/22 01:00:26;;;;;;;20.33;8.63;;;6.90;99.90;;;;;;4909143;29;20263;-87
2023/02/22 01:02:54;;;;;;;14.20;6.88;;;6.90;99.90;;;;;;4908578;29;20424;-87
2023/02/22 01:05:23;;;;;;;20.80;8.68;;;6.90;99.90;;;;;;4895827;29;20034;-87
2023/02/22 01:07:54;;;;;;;24.80;10.10;;;6.80;99.90;;;;;;4925104;29;20046;-88
2023/02/22 01:10:22;;;;;;;21.95;9.38;;;6.80;99.90;;;;;;4924782;29;20024;-87
2023/02/22 01:12:48;;;;;;;24.17;10.65;;;6.80;99.90;;;;;;4925201;29;20111;-87
2023/02/22 01:15:20;;;;;;;22.60;9.75;;;6.80;99.90;;;;;;4923582;29;20028;-88
2023/02/22 01:17:47;;;;;;;20.23;8.80;;;6.80;99.90;;;;;;4911349;29;20027;-87
2023/02/22 01:20:14;;;;;;;21.27;9.30;;;6.80;99.90;;;;;;4913221;29;20500;-88
2023/02/22 01:22:42;;;;;;;20.20;8.23;;;6.80;99.90;;;;;;4925565;29;20043;-87
2023/02/22 01:25:16;;;;;;;24.58;11.27;;;6.80;99.90;;;;;;4924316;29;20123;-88
2023/02/22 01:27:42;;;;;;;20.98;9.20;;;6.70;99.90;;;;;;4922218;29;20488;-87
2023/02/22 01:30:11;;;;;;;24.20;10.35;;;6.80;99.90;;;;;;4907971;29;20036;-87
2023/02/22 01:32:40;;;;;;;21.95;9.05;;;6.70;99.90;;;;;;4909993;29;20063;-88
2023/02/22 01:35:13;;;;;;;22.45;9.65;;;6.80;99.90;;;;;;4924835;29;20119;-88
2023/02/22 01:37:39;;;;;;;27.17;11.60;;;6.70;99.90;;;;;;4913429;29;20079;-88
2023/02/22 01:40:08;;;;;;;27.20;11.07;;;6.70;99.90;;;;;;4913258;29;20043;-88
2023/02/22 01:42:34;;;;;;;28.58;12.65;;;6.70;99.90;;;;;;4908675;29;20035;-88
2023/02/22 01:45:28;;;;;;;28.85;12.23;;;6.70;99.90;;;;;;4909249;29;20131;-88
2023/02/22 01:47:57;;;;;;;28.60;11.40;;;6.70;99.90;;;;;;4926196;29;20035;-88
2023/02/22 01:50:23;;;;;;;28.08;11.05;;;6.70;99.90;;;;;;4924125;29;20024;-88
2023/02/22 01:52:49;;;;;;;28.50;11.77;;;6.70;99.90;;;;;;4890146;29;20083;-87
2023/02/22 01:55:17;;;;;;;23.80;10.30;;;6.60;99.90;;;;;;4894712;29;20020;-87
2023/02/22 01:57:46;;;;;;;27.10;11.73;;;6.60;99.90;;;;;;4924389;29;20032;-87
2023/02/22 02:00:16;;;;;;;24.63;10.38;;;6.60;99.90;;;;;;4894550;29;20023;-87
2023/02/22 02:02:47;;;;;;;23.52;9.25;;;6.60;99.90;;;;;;4910535;29;20035;-87
2023/02/22 02:05:13;;;;;;;22.63;9.82;;;6.60;99.90;;;;;;4909825;29;20038;-87
2023/02/22 02:07:40;;;;;;;20.52;9.60;;;6.60;99.90;;;;;;4911771;29;20039;-88
2023/02/22 02:10:13;;;;;;;21.02;9.25;;;6.60;99.90;;;;;;4910660;29;20038;-88
2023/02/22 02:12:42;;;;;;;20.25;8.70;;;6.60;99.90;;;;;;4909392;29;20373;-87
2023/02/22 02:15:29;;;;;;;23.67;11.10;;;6.50;99.90;;;;;;4909511;29;20048;-88
2023/02/22 02:18:06;;;;;;;24.33;11.48;;;6.40;99.90;;;;;;4898352;29;20490;-87
2023/02/22 02:20:42;;;;;;;23.08;10.55;;;6.40;99.90;;;;;;4926288;29;20028;-86
2023/02/22 02:23:24;;;;;;;23.30;10.45;;;6.40;99.90;;;;;;4914805;29;20135;-87
2023/02/22 02:26:23;;;;;;;22.73;10.05;;;6.40;99.90;;;;;;4916669;29;20510;-87
2023/02/22 02:29:07;;;;;;;22.52;10.07;;;6.40;99.90;;;;;;4843414;29;20152;-87
2023/02/22 02:31:59;;;;;;;23.00;10.57;;;6.40;99.90;;;;;;4845005;29;20037;-88
2023/02/22 02:34:49;;;;;;;23.15;10.65;;;6.50;99.90;;;;;;4872330;29;20097;-88
2023/02/22 02:37:41;;;;;;;21.02;9.25;;;6.50;99.90;;;;;;4843372;29;20223;-87
2023/02/22 02:40:24;;;;;;;26.60;11.60;;;6.40;99.90;;;;;;4859531;29;20041;-87
2023/02/22 02:43:12;;;;;;;21.05;9.77;;;6.40;99.90;;;;;;4856582;29;20033;-88
2023/02/22 02:45:53;;;;;;;21.65;9.98;;;6.50;99.90;;;;;;4857349;29;20049;-87
2023/02/22 02:48:24;;;;;;;23.83;9.80;;;6.40;99.90;;;;;;4856273;29;20095;-87
2023/02/22 02:50:51;;;;;;;25.05;11.05;;;6.40;99.90;;;;;;4860084;29;20025;-88
2023/02/22 02:53:24;;;;;;;22.85;10.13;;;6.40;99.90;;;;;;4860400;29;20102;-88
2023/02/22 02:55:50;;;;;;;28.38;13.30;;;6.40;99.90;;;;;;4859687;29;20610;-88
2023/02/22 02:58:20;;;;;;;25.85;11.95;;;6.40;99.90;;;;;;4858721;29;20623;-88
2023/02/22 03:00:50;;;;;;;25.17;10.85;;;6.40;99.90;;;;;;4870816;29;20058;-87
2023/02/22 03:03:22;;;;;;;24.83;10.93;;;6.30;99.90;;;;;;4859056;29;20033;-88
2023/02/22 03:06:07;;;;;;;26.02;10.88;;;6.40;99.90;;;;;;4895640;29;20419;-88
2023/02/22 03:08:38;;;;;;;24.35;11.02;;;6.40;99.90;;;;;;4911397;29;20480;-88
2023/02/22 03:11:30;;;;;;;26.98;11.57;;;6.40;99.90;;;;;;4912552;29;20031;-88
2023/02/22 03:14:18;;;;;;;24.73;11.68;;;6.30;99.90;;;;;;4893578;29;20083;-88
2023/02/22 03:16:55;;;;;;;27.38;12.27;;;6.40;99.90;;;;;;4908787;29;20509;-88
2023/02/22 03:19:27;;;;;;;27.90;12.57;;;6.40;99.90;;;;;;4897021;29;20040;-88
2023/02/22 03:22:00;;;;;;;28.42;12.43;;;6.40;99.90;;;;;;4896040;29;20060;-87
2023/02/22 03:24:34;;;;;;;26.75;11.57;;;6.30;99.90;;;;;;4910395;29;20115;-88
2023/02/22 03:27:08;;;;;;;30.23;13.82;;;6.30;99.90;;;;;;4893730;29;20396;-89
2023/02/22 03:29:39;;;;;;;29.88;14.15;;;6.20;99.90;;;;;;4907243;29;20020;-88
2023/02/22 03:32:17;;;;;;;27.87;12.63;;;6.20;99.90;;;;;;4895415;29;20036;-88
2023/02/22 03:35:02;;;;;;;29.63;12.23;;;6.30;99.90;;;;;;4879671;29;20028;-87
2023/02/22 03:37:34;;;;;;;30.10;13.52;;;6.20;99.90;;;;;;4896967;29;20033;-88
2023/02/22 03:40:12;;;;;;;29.55;12.50;;;6.20;99.90;;;;;;4897738;29;20370;-88
2023/02/22 03:42:47;;;;;;;29.85;12.45;;;6.20;99.90;;;;;;4910323;29;20055;-88
2023/02/22 03:45:16;;;;;;;26.73;11.00;;;6.20;99.90;;;;;;4893144;29;20445;-88
2023/02/22 03:47:49;;;;;;;30.40;13.52;;;6.10;99.90;;;;;;4892186;29;20048;-88
2023/02/22 03:50:28;;;;;;;28.15;12.43;;;6.10;99.90;;;;;;4878050;29;20020;-88
2023/02/22 03:52:57;;;;;;;24.33;10.70;;;6.10;99.90;;;;;;4893774;29;20032;-88
2023/02/22 03:55:27;;;;;;;29.15;12.43;;;6.10;99.90;;;;;;4896859;29;20028;-88
2023/02/22 03:58:04;;;;;;;27.25;11.80;;;6.00;99.90;;;;;;4894934;29;20027;-88
2023/02/22 04:00:33;;;;;;;26.42;11.50;;;6.00;99.90;;;;;;4893374;29;20115;-88
2023/02/22 04:03:00;;;;;;;28.35;13.40;;;6.00;99.90;;;;;;4881732;29;20034;-87
2023/02/22 04:05:27;;;;;;;27.00;11.55;;;6.00;99.90;;;;;;4894684;29;20025;-88
2023/02/22 04:07:56;;;;;;;34.60;13.30;;;5.90;99.90;;;;;;4878809;29;20529;-88
2023/02/22 04:10:23;;;;;;;30.55;12.52;;;5.90;99.90;;;;;;4877092;29;20043;-88
2023/02/22 04:12:49;;;;;;;26.90;12.60;;;6.00;99.90;;;;;;4887954;29;20056;-88
2023/02/22 04:15:19;;;;;;;31.95;13.65;;;6.00;99.90;;;;;;4913022;29;20024;-88
2023/02/22 04:17:47;;;;;;;32.25;13.77;;;6.00;99.90;;;;;;4912043;29;20038;-88
2023/02/22 04:20:18;;;;;;;32.58;14.68;;;6.00;99.90;;;;;;4926497;29;20373;-88
2023/02/22 04:22:54;;;;;;;31.73;12.48;;;6.00;99.90;;;;;;4913241;29;20039;-88
2023/02/22 04:25:22;;;;;;;30.00;14.25;;;6.00;99.90;;;;;;4922762;29;20035;-88
2023/02/22 04:27:49;;;;;;;30.63;14.38;;;6.00;99.90;;;;;;4910388;29;20106;-88
2023/02/22 04:30:19;;;;;;;27.15;11.73;;;6.00;99.90;;;;;;4914098;29;20377;-88
2023/02/22 04:32:46;;;;;;;26.55;11.75;;;6.00;99.90;;;;;;4929126;29;20031;-89
2023/02/22 04:35:14;;;;;;;31.27;14.43;;;5.90;99.90;;;;;;4914141;29;20027;-88
2023/02/22 04:37:41;;;;;;;29.13;14.35;;;5.90;99.90;;;;;;4910644;29;20036;-88
2023/02/22 04:40:09;;;;;;;32.38;14.23;;;5.90;99.90;;;;;;4913047;29;20067;-88
2023/02/22 04:42:36;;;;;;;32.70;14.65;;;5.90;99.90;;;;;;4927306;29;20147;-88
2023/02/22 04:45:04;;;;;;;32.05;14.15;;;5.90;99.90;;;;;;4915044;29;20062;-88
2023/02/22 04:47:30;;;;;;;33.35;13.18;;;5.80;99.90;;;;;;4913461;29;20442;-88
2023/02/22 04:49:59;;;;;;;32.88;14.43;;;5.90;99.90;;;;;;4907985;29;20052;-88
2023/02/22 04:52:25;;;;;;;32.53;13.77;;;5.80;99.90;;;;;;4925331;29;20039;-88
2023/02/22 04:54:53;;;;;;;33.42;14.90;;;5.80;99.90;;;;;;4911324;29;20080;-88
2023/02/22 04:57:19;;;;;;;29.80;13.40;;;5.90;99.90;;;;;;4908781;29;20036;-88
2023/02/22 04:59:45;;;;;;;36.00;14.18;;;5.80;99.90;;;;;;4912649;29;20063;-88
2023/02/22 05:02:12;;;;;;;33.10;14.90;;;5.80;99.90;;;;;;4913302;29;20387;-88
2023/02/22 05:04:38;;;;;;;30.45;13.55;;;5.80;99.90;;;;;;4927288;29;20511;-88
2023/02/22 05:07:04;;;;;;;25.52;11.38;;;5.80;99.90;;;;;;4922172;29;20415;-88
2023/02/22 05:09:30;;;;;;;31.17;13.68;;;5.80;99.90;;;;;;4907672;29;22088;-88
2023/02/22 05:11:56;;;;;;;30.08;12.20;;;5.80;99.90;;;;;;4896229;29;20438;-88
2023/02/22 05:14:25;;;;;;;31.08;13.05;;;5.70;99.90;;;;;;4908399;29;20028;-88
2023/02/22 05:16:53;;;;;;;29.35;12.68;;;5.70;99.90;;;;;;4911279;29;20036;-88
2023/02/22 05:19:19;;;;;;;31.13;13.23;;;5.70;99.90;;;;;;4926033;29;20544;-88
2023/02/22 05:21:45;;;;;;;32.38;13.73;;;5.60;99.90;;;;;;4914913;29;20118;-88
2023/02/22 05:24:11;;;;;;;33.60;13.48;;;5.60;99.90;;;;;;4908918;29;20040;-88
2023/02/22 05:26:37;;;;;;;32.35;14.27;;;5.60;99.90;;;;;;4927627;29;20613;-89
2023/02/22 05:29:03;;;;;;;28.58;11.02;;;5.70;99.90;;;;;;4896655;29;20032;-88
2023/02/22 05:31:29;;;;;;;31.75;13.50;;;5.60;99.90;;;;;;4911836;29;20031;-88
2023/02/22 05:33:57;;;;;;;31.50;12.38;;;5.60;99.90;;;;;;4910976;29;20035;-88
2023/02/22 05:36:23;;;;;;;31.75;12.73;;;5.60;99.90;;;;;;4910816;29;20035;-88
2023/02/22 05:38:49;;;;;;;31.52;13.18;;;5.60;99.90;;;;;;4912494;29;20036;-88
2023/02/22 05:41:15;;;;;;;32.72;12.63;;;5.60;99.90;;;;;;4914432;29;20024;-88
2023/02/22 05:43:41;;;;;;;33.55;12.73;;;5.60;99.90;;;;;;4924989;29;20439;-87
2023/02/22 05:46:07;;;;;;;29.67;12.02;;;5.60;99.90;;;;;;4912720;29;20039;-88
2023/02/22 05:48:34;;;;;;;28.42;12.30;;;5.60;99.90;;;;;;4912793;29;20039;-88
2023/02/22 05:50:59;;;;;;;27.40;11.07;;;5.70;99.90;;;;;;4908117;29;20026;-88
2023/02/22 05:53:26;;;;;;;29.38;11.13;;;5.60;99.90;;;;;;4924768;29;20027;-89
2023/02/22 05:55:52;;;;;;;29.98;11.35;;;5.70;99.90;;;;;;4908582;29;20028;-88
2023/02/22 05:58:18;;;;;;;26.75;9.90;;;5.60;99.90;;;;;;4911991;29;20032;-88
2023/02/22 06:00:44;;;;;;;21.33;7.32;;;5.60;99.90;;;;;;4895117;29;20028;-87
2023/02/22 06:03:11;;;;;;;30.65;12.48;;;5.60;99.90;;;;;;4914411;29;20405;-87
2023/02/22 06:05:39;;;;;;;27.45;10.10;;;5.60;99.90;;;;;;4914361;29;20126;-87
2023/02/22 06:08:07;;;;;;;27.92;11.77;;;5.60;99.90;;;;;;4912016;29;20514;-88
2023/02/22 06:10:33;;;;;;;27.10;11.02;;;5.70;99.90;;;;;;4908168;29;20449;-88
2023/02/22 06:13:04;;;;;;;30.95;11.25;;;5.60;99.90;;;;;;4902245;29;20043;-87
2023/02/22 06:15:34;;;;;;;24.17;8.85;;;5.70;99.90;;;;;;4894513;29;20123;-87
2023/02/22 06:18:02;;;;;;;26.63;11.02;;;5.70;99.90;;;;;;4910955;29;20043;-87
2023/02/22 06:20:29;;;;;;;32.22;12.32;;;5.70;99.90;;;;;;4918486;29;20712;-87
2023/02/22 06:22:57;;;;;;;31.42;11.93;;;5.70;99.90;;;;;;4912761;29;20020;-87
2023/02/22 06:25:26;;;;;;;29.95;11.73;;;5.70;99.90;;;;;;4911366;29;20818;-87
2023/02/22 06:27:51;;;;;;;32.22;11.77;;;5.70;99.90;;;;;;4905719;29;20043;-87
2023/02/22 06:30:21;;;;;;;33.80;11.98;;;5.70;99.90;;;;;;4906523;29;20118;-87
2023/02/22 06:32:46;;;;;;;25.87;10.67;;;5.70;99.90;;;;;;4907846;29;20064;-87
2023/02/22 06:35:13;;;;;;;30.38;11.45;;;5.70;99.90;;;;;;4912380;29;20062;-87
2023/02/22 06:37:39;;;;;;;31.10;13.25;;;5.70;99.90;;;;;;4911864;29;20095;-87
2023/02/22 06:40:05;;;;;;;30.52;11.98;;;5.70;99.90;;;;;;4922249;29;20032;-87
2023/02/22 06:42:31;;;;;;;33.78;12.98;;;5.70;99.90;;;;;;4894984;29;20100;-86
2023/02/22 06:44:57;;;;;;;27.83;11.55;;;5.70;99.90;;;;;;4894777;29;20039;-88
2023/02/22 06:47:23;;;;;;;30.17;11.65;;;5.70;99.90;;;;;;4911000;29;20044;-87
2023/02/22 06:49:54;;;;;;;32.38;12.73;;;5.80;99.90;;;;;;4914101;29;20172;-86
2023/02/22 06:52:29;;;;;;;28.20;11.10;;;5.80;99.90;;;;;;4911695;29;20039;-87
2023/02/22 06:55:19;;;;;;;28.15;10.77;;;5.70;99.90;;;;;;4897827;29;20397;-87
2023/02/22 06:57:47;;;;;;;25.65;10.38;;;5.80;99.90;;;;;;4910533;29;20035;-88
2023/02/22 07:00:16;;;;;;;28.77;12.32;;;5.80;99.90;;;;;;4910736;29;20027;-87
2023/02/22 07:02:42;;;;;;;27.38;11.25;;;5.80;99.90;;;;;;4915325;29;20039;-87
2023/02/22 07:05:11;;;;;;;29.48;11.38;;;5.80;99.90;;;;;;4913495;29;20027;-88
2023/02/22 07:07:37;;;;;;;21.20;8.20;;;5.80;99.90;;;;;;4901505;29;20040;-87
2023/02/22 07:10:05;;;;;;;22.77;9.88;;;5.80;99.90;;;;;;4911299;29;20118;-88
2023/02/22 07:12:31;;;;;;;26.77;10.23;;;5.80;99.90;;;;;;4901226;29;20068;-88
2023/02/22 07:14:57;;;;;;;23.40;8.98;;;5.80;99.90;;;;;;4915228;29;20034;-87
2023/02/22 07:17:22;;;;;;;22.15;7.95;;;5.80;99.90;;;;;;4911296;29;20380;-86
2023/02/22 07:19:48;;;;;;;21.23;8.75;;;5.80;99.90;;;;;;4916266;29;20494;-86
2023/02/22 07:22:14;;;;;;;24.50;9.38;;;5.80;99.90;;;;;;4911364;29;20031;-87
2023/02/22 07:24:40;;;;;;;24.02;9.38;;;5.90;99.90;;;;;;4925399;29;20449;-86
2023/02/22 07:27:06;;;;;;;18.30;7.68;;;5.90;99.90;;;;;;4911756;29;20043;-87
2023/02/22 07:29:34;;;;;;;22.00;8.63;;;5.80;99.90;;;;;;4917137;29;20028;-87
2023/02/22 07:32:01;;;;;;;24.92;8.63;;;5.90;99.90;;;;;;4916121;29;20110;-87
2023/02/22 07:34:27;;;;;;;21.90;9.30;;;5.90;99.90;;;;;;4899885;29;20051;-87
2023/02/22 07:36:53;;;;;;;23.27;9.43;;;5.90;99.90;;;;;;4914515;29;20472;-86
2023/02/22 07:39:19;;;;;;;23.45;9.20;;;5.90;99.90;;;;;;4912521;29;20035;-87
2023/02/22 07:41:45;;;;;;;27.50;10.23;;;6.00;99.90;;;;;;4914376;29;20443;-87
2023/02/22 07:44:21;;;;;;;25.02;9.95;;;5.90;99.90;;;;;;4913952;29;20039;-87
2023/02/22 07:46:48;;;;;;;23.27;8.27;;;6.00;99.90;;;;;;4912255;29;20063;-86
2023/02/22 07:49:14;;;;;;;27.30;9.65;;;6.00;99.90;;;;;;4914529;29;20039;-87
2023/02/22 07:51:40;;;;;;;25.77;10.93;;;6.00;99.90;;;;;;4913450;29;20481;-87
2023/02/22 07:54:06;;;;;;;27.70;10.35;;;6.00;99.90;;;;;;4897591;29;20046;-87
2023/02/22 07:56:31;;;;;;;25.23;9.35;;;6.10;99.90;;;;;;4926997;29;20539;-86
2023/02/22 07:58:57;;;;;;;21.58;7.60;;;6.10;99.90;;;;;;4916551;29;20032;-87
2023/02/22 08:01:23;;;;;;;23.77;8.68;;;6.10;99.90;;;;;;4915069;29;20738;-86
2023/02/22 08:03:49;;;;;;;24.58;8.70;;;6.20;99.90;;;;;;4916689;29;20039;-86
2023/02/22 08:06:15;;;;;;;22.63;8.48;;;6.20;99.90;;;;;;4916014;29;20043;-87
2023/02/22 08:08:41;;;;;;;23.25;8.43;;;6.20;99.90;;;;;;4913038;29;20051;-87
2023/02/22 08:11:07;;;;;;;24.20;8.68;;;6.20;99.90;;;;;;4895904;29;20276;-87
2023/02/22 08:13:36;;;;;;;22.77;8.63;;;6.30;99.90;;;;;;4911958;29;20424;-86
2023/02/22 08:16:02;;;;;;;26.38;10.05;;;6.30;99.90;;;;;;4915466;29;20035;-87
2023/02/22 08:18:28;;;;;;;27.23;9.38;;;6.30;99.90;;;;;;4914377;29;20436;-87
2023/02/22 08:20:54;;;;;;;25.58;10.50;;;6.40;99.90;;;;;;4910106;29;20111;-87
2023/02/22 08:23:21;;;;;;;25.10;8.45;;;6.30;99.90;;;;;;4913716;29;20487;-87
2023/02/22 08:25:47;;;;;;;21.92;8.38;;;6.40;99.90;;;;;;4907001;29;20499;-86
2023/02/22 08:28:15;;;;;;;24.63;9.93;;;6.40;99.90;;;;;;4912470;29;20065;-86
2023/02/22 08:30:42;;;;;;;27.52;10.00;;;6.50;99.90;;;;;;4900713;29;20036;-87
2023/02/22 08:33:12;;;;;;;19.00;6.00;;;6.50;99.90;;;;;;4896069;29;20491;-87
2023/02/22 08:35:39;;;;;;;24.73;8.82;;;6.50;99.90;;;;;;4913625;29;20039;-87
2023/02/22 08:38:06;;;;;;;26.90;10.30;;;6.50;99.90;;;;;;4913540;29;20042;-87
2023/02/22 08:40:34;;;;;;;23.83;9.45;;;6.60;99.90;;;;;;4913628;29;20020;-87
2023/02/22 08:43:00;;;;;;;27.58;10.45;;;6.60;99.90;;;;;;4893651;29;20757;-88
2023/02/22 08:45:27;;;;;;;27.80;10.23;;;6.70;99.90;;;;;;4910344;29;20483;-87
2023/02/22 08:47:53;;;;;;;31.73;10.85;;;6.60;99.90;;;;;;4922800;29;20040;-86
2023/02/22 08:50:29;;;;;;;25.90;9.10;;;6.70;99.90;;;;;;4912913;29;20039;-88
2023/02/22 08:53:00;;;;;;;31.17;10.35;;;6.70;99.90;;;;;;4911482;29;20032;-88
2023/02/22 08:55:31;;;;;;;30.98;10.90;;;6.80;99.90;;;;;;4901445;29;20436;-87
2023/02/22 08:57:58;;;;;;;32.25;11.00;;;6.80;99.90;;;;;;4911150;29;20043;-87
2023/02/22 09:00:24;;;;;;;30.92;11.20;;;6.80;99.90;;;;;;4913858;29;20040;-87
2023/02/22 09:02:51;;;;;;;31.17;11.27;;;6.80;99.90;;;;;;4912720;29;20366;-87
2023/02/22 09:05:17;;;;;;;29.38;10.40;;;6.90;99.90;;;;;;4908494;29;20028;-89
2023/02/22 09:07:44;;;;;;;33.70;11.80;;;6.90;99.90;;;;;;4912208;29;20044;-88
2023/02/22 09:10:17;;;;;;;32.08;10.40;;;6.90;99.90;;;;;;4915253;29;20035;-87
2023/02/22 09:12:43;;;;;;;31.63;10.82;;;6.90;99.90;;;;;;4909009;29;20080;-88
2023/02/22 09:15:10;;;;;;;26.13;10.27;;;7.00;99.90;;;;;;4904434;29;20028;-88
2023/02/22 09:17:36;;;;;;;29.42;11.48;;;7.10;99.90;;;;;;4906717;29;20043;-88
2023/02/22 09:20:04;;;;;;;33.35;12.32;;;7.10;99.90;;;;;;4886855;29;20024;-88
2023/02/22 09:22:31;;;;;;;29.45;11.52;;;7.20;99.90;;;;;;4906053;29;20036;-88
2023/02/22 09:24:57;;;;;;;28.52;10.95;;;7.20;99.90;;;;;;4892451;29;20131;-88
2023/02/22 09:27:23;;;;;;;25.83;9.93;;;7.30;99.90;;;;;;4909822;29;20130;-90
2023/02/22 09:29:49;;;;;;;31.63;12.27;;;7.30;99.90;;;;;;4912147;29;20111;-87
2023/02/22 09:32:16;;;;;;;38.42;12.98;;;7.40;99.90;;;;;;4909066;29;20036;-86
2023/02/22 09:34:45;;;;;;;33.65;12.90;;;7.40;99.90;;;;;;4910658;29;20448;-87
2023/02/22 09:37:12;;;;;;;31.48;12.13;;;7.40;99.90;;;;;;4901779;29;20087;-87
2023/02/22 09:39:38;;;;;;;31.38;11.45;;;7.50;99.90;;;;;;4910291;29;20051;-87
2023/02/22 09:42:45;;;;;;;30.52;12.18;;;7.60;99.90;;;;;;4904361;29;20473;-87
2023/02/22 09:45:19;;;;;;;31.88;11.98;;;7.70;99.90;;;;;;4874112;29;20135;-87
2023/02/22 09:47:55;;;;;;;32.72;12.50;;;7.70;99.90;;;;;;4874151;29;20052;-84
2023/02/22 09:50:25;;;;;;;29.30;10.48;;;7.70;99.90;;;;;;4873335;29;20025;-87
2023/02/22 09:53:21;;;;;;;27.60;10.13;;;7.80;99.90;;;;;;4873527;29;20082;-86
2023/02/22 09:55:56;;;;;;;32.13;11.80;;;7.70;99.90;;;;;;4857304;29;20028;-86
2023/02/22 09:58:32;;;;;;;33.03;13.32;;;7.80;99.90;;;;;;4856027;29;20032;-86
2023/02/22 10:01:31;;;;;;;39.08;13.25;;;7.90;99.90;;;;;;4858169;29;20107;-86
2023/02/22 10:04:03;;;;;;;32.20;12.20;;;8.10;99.90;;;;;;4873678;29;20602;-87
2023/02/22 10:06:32;;;;;;;28.33;12.43;;;8.20;99.90;;;;;;4871602;29;20045;-86
2023/02/22 10:09:06;;;;;;;28.67;10.80;;;8.20;99.90;;;;;;4857024;29;20079;-87
2023/02/22 10:11:51;;;;;;;26.38;11.35;;;8.30;99.90;;;;;;4869816;29;20053;-86
2023/02/22 10:14:45;;;;;;;31.55;12.25;;;8.30;99.90;;;;;;4857022;29;20442;-86
2023/02/22 10:17:39;;;;;;;27.83;11.02;;;8.40;99.90;;;;;;4888298;29;20047;-86
2023/02/22 10:20:27;;;;;;;30.67;11.45;;;8.40;99.90;;;;;;4890143;29;20103;-86
2023/02/22 10:23:24;;;;;;;26.58;10.95;;;8.60;99.90;;;;;;4908477;29;20063;-86
2023/02/22 10:26:24;;;;;;;25.58;11.90;;;8.80;99.90;;;;;;4905307;29;20028;-86
2023/02/22 10:29:00;;;;;;;26.73;11.53;;;8.80;99.90;;;;;;4890749;29;20048;-86
2023/02/22 10:31:34;;;;;;;25.38;10.75;;;8.80;99.90;;;;;;4904051;29;20866;-86
2023/02/22 10:34:04;;;;;;;29.55;11.98;;;8.90;99.90;;;;;;4899789;29;20032;-86
2023/02/22 10:36:33;;;;;;;23.20;10.45;;;8.90;99.90;;;;;;4907198;29;20060;-86
2023/02/22 10:39:20;;;;;;;26.38;11.18;;;9.00;99.90;;;;;;4913362;29;20036;-84
2023/02/22 10:41:54;;;;;;;25.83;11.75;;;9.00;99.90;;;;;;4901320;29;20046;-86
2023/02/22 10:44:20;;;;;;;26.75;11.40;;;9.00;99.90;;;;;;4905002;29;20453;-86
2023/02/22 10:46:46;;;;;;;23.00;11.95;;;9.10;99.90;;;;;;4905241;29;20028;-86
2023/02/22 10:49:21;;;;;;;24.17;11.63;;;9.10;99.90;;;;;;4896028;29;20028;-86
2023/02/22 10:52:00;;;;;;;24.33;10.85;;;9.30;99.90;;;;;;4906474;29;20075;-87
2023/02/22 10:54:32;;;;;;;20.08;10.02;;;9.30;99.90;;;;;;4923351;29;20462;-86
2023/02/22 10:56:59;;;;;;;21.27;11.35;;;9.40;99.90;;;;;;4906404;29;20032;-86
2023/02/22 10:59:27;;;;;;;21.63;11.57;;;9.40;99.90;;;;;;4895721;29;20036;-85
2023/02/22 11:01:53;;;;;;;22.45;10.02;;;9.50;99.90;;;;;;4911647;29;20080;-86
2023/02/22 11:04:21;;;;;;;20.80;10.73;;;9.70;99.90;;;;;;4912873;29;20047;-86
2023/02/22 11:07:08;;;;;;;22.30;11.80;;;9.80;99.90;;;;;;4913401;29;20036;-86
2023/02/22 11:09:46;;;;;;;21.20;10.80;;;9.70;99.90;;;;;;4895096;29;20131;-86
2023/02/22 11:12:31;;;;;;;20.38;10.95;;;10.00;99.90;;;;;;4905649;29;20584;-87
2023/02/22 11:15:17;;;;;;;20.98;10.45;;;9.90;99.90;;;;;;4909399;29;20058;-86
2023/02/22 11:17:45;;;;;;;20.25;10.50;;;10.00;99.90;;;;;;4914214;29;20032;-87
2023/02/22 11:20:27;;;;;;;18.83;9.30;;;10.00;99.90;;;;;;4910347;29;20035;-87
2023/02/22 11:22:56;;;;;;;16.10;9.48;;;10.00;99.90;;;;;;4906263;29;20031;-87
2023/02/22 11:25:30;;;;;;;18.23;10.75;;;10.10;99.90;;;;;;4906407;29;20091;-87
2023/02/22 11:28:14;;;;;;;18.48;9.10;;;10.10;99.90;;;;;;4907915;29;20057;-87
2023/02/22 11:30:43;;;;;;;19.40;9.65;;;10.20;99.90;;;;;;4922333;29;20040;-87
2023/02/22 11:33:15;;;;;;;18.80;10.38;;;10.50;99.90;;;;;;4909252;29;20031;-87
2023/02/22 11:35:57;;;;;;;21.40;11.23;;;10.40;99.90;;;;;;4912712;29;20094;-87
2023/02/22 11:38:26;;;;;;;22.08;10.93;;;10.70;99.90;;;;;;4891219;29;20032;-86
2023/02/22 11:41:17;;;;;;;20.07;9.00;;;10.70;99.90;;;;;;4905150;29;20063;-88
2023/02/22 11:43:48;;;;;;;19.55;10.23;;;10.90;99.90;;;;;;4913073;29;20047;-87
2023/02/22 11:46:22;;;;;;;23.30;10.50;;;10.80;99.90;;;;;;4907398;29;20032;-88
2023/02/22 11:49:05;;;;;;;18.77;10.40;;;11.00;99.90;;;;;;4920453;29;20123;-88
2023/02/22 11:51:53;;;;;;;16.58;9.02;;;11.00;99.90;;;;;;4911168;29;20055;-86
2023/02/22 11:54:37;;;;;;;19.85;10.57;;;11.10;99.90;;;;;;4904613;29;20027;-88
2023/02/22 11:57:35;;;;;;;20.88;12.43;;;10.90;99.90;;;;;;4927431;29;20035;-87
2023/02/22 12:00:23;;;;;;;22.15;11.50;;;11.00;99.90;;;;;;4905484;29;20035;-87
2023/02/22 12:03:11;;;;;;;20.15;11.55;;;11.20;99.90;;;;;;4908711;29;20028;-87
2023/02/22 12:05:58;;;;;;;21.88;11.70;;;11.10;99.90;;;;;;4912251;29;20032;-88
2023/02/22 12:08:58;;;;;;;18.33;10.43;;;10.90;99.90;;;;;;4914963;29;20067;-88
2023/02/22 12:11:29;;;;;;;18.13;9.48;;;11.00;99.90;;;;;;4922910;29;20062;-88
2023/02/22 12:14:22;;;;;;;14.48;8.05;;;10.90;99.90;;;;;;4911299;29;20024;-88
2023/02/22 12:17:22;;;;;;;15.32;8.55;;;11.00;99.90;;;;;;4910981;29;20024;-88
2023/02/22 12:19:57;;;;;;;14.02;8.38;;;11.20;99.90;;;;;;4864902;29;20111;-87
2023/02/22 12:22:38;;;;;;;19.00;11.10;;;11.40;99.90;;;;;;4912473;29;20028;-88
2023/02/22 12:25:18;;;;;;;23.73;12.73;;;11.40;99.90;;;;;;4910669;29;20111;-88
2023/02/22 12:27:54;;;;;;;19.60;10.15;;;11.30;99.90;;;;;;4906906;29;20052;-87
2023/02/22 12:30:27;;;;;;;17.67;10.82;;;11.60;99.90;;;;;;4910852;29;20055;-88
2023/02/22 12:32:58;;;;;;;19.80;11.05;;;11.50;99.90;;;;;;4912641;29;20063;-88
2023/02/22 12:35:35;;;;;;;17.75;10.27;;;11.70;99.90;;;;;;4905129;29;20032;-88
2023/02/22 12:38:12;;;;;;;16.63;10.45;;;11.90;99.90;;;;;;4905621;29;20527;-88
2023/02/22 12:40:47;;;;;;;16.27;9.50;;;11.80;99.90;;;;;;4909971;29;20032;-88
2023/02/22 12:43:24;;;;;;;13.63;8.43;;;11.80;99.90;;;;;;4909970;29;20024;-88
2023/02/22 12:46:02;;;;;;;17.67;10.55;;;12.00;99.90;;;;;;4906035;29;20518;-90
2023/02/22 12:48:58;;;;;;;16.08;9.57;;;12.00;99.90;;;;;;4912000;29;20040;-88
2023/02/22 12:51:59;;;;;;;14.57;8.43;;;12.20;99.90;;;;;;4919162;29;20082;-89
2023/02/22 12:54:42;;;;;;;14.55;8.52;;;12.20;99.90;;;;;;4903630;29;20028;-87
2023/02/22 12:57:41;;;;;;;13.10;7.90;;;12.10;99.90;;;;;;4903416;29;20078;-88
2023/02/22 13:00:27;;;;;;;14.43;8.32;;;12.50;99.90;;;;;;4919668;29;20028;-89
2023/02/22 13:03:02;;;;;;;11.80;7.25;;;12.50;99.90;;;;;;4905680;29;20076;-88